Stanley, ID

7:48 AM MDT on September 30, 2016 (GMT -0600)
Stanley | | Change Station

Elev 6496 ft 44.17 °N, 114.93 °W | Updated 57 minutes ago

Clear
Clear
41 °F
Feels Like 41 °F
N
0
Wind Variable Wind from North
Gusts mph

Today
High -- | Low -- °F
--% Chance of Precip.
Yesterday
High -- | Low -- °F
Precip. -- in
Pressure 30.03 in
Visibility -9999.0 miles
Clouds
Dew Point 40 °F
Humidity 96%
Rainfall 0.01 in
Snow Depth Not available.
7:36 AM 7:21 PM
Waning Crescent, 0% visible
METAR KSNT 301251Z AUTO 00000KT 05/04 A3026 RMK AO1 SLP169 T00500044
Pressure 30.03 in
Visibility -9999.0 miles
Clouds
Dew Point 40 °F
Humidity 96%
Rainfall 0.01 in
Snow Depth Not available.
7:36 AM 7:21 PM
Waning Crescent, 0% visible
METAR KSNT 301251Z AUTO 00000KT 05/04 A3026 RMK AO1 SLP169 T00500044

10-Day Weather Forecast

Almanac

Astronomy

Sep. 30, 2016 Rise Set
Actual Time
Civil Twilight
Nautical Twilight
Astronomical Twilight
Moon
Length of Visible Light
Length of Day
Tomorrow will be .
, % of the Moon is Illuminated

Today's Extremes

State Highs State Lows

Community

WunderPhotos

Upload Photos

1,942,711 photos uploaded!

WunderBlog® & News

Nearby

Air Quality

  Air Quality AQ Index Pollutant
Not available.

Snow Depth

Station Depth Elevation

Earthquake Activity

City Distance Mag. Time & Date
Minimum magnitude displayed is 2.5.

Coastal Water Temperatures

Place Temperature

Stations

Nearby Weather Stations

Station Location Temp. Windchill Dew Point Humidity Wind Precip. Elev Updated Type
                   

Watches & Warnings

There are currently no watches in effect.